Time;durP1;ratioP1;P1;durP2;ratioP2;P2;SDS_P1;SDS_P2;PMS_P1;PMS_P2;Temp;Humidity;BMP_temperature;BMP_pressure;BME280_temperature;BME280_humidity;BME280_pressure;Samples;Min_cycle;Max_cycle;Signal;HPM_P1;HPM_P2
2022/08/24 00:01:35;;;;;;;5.22;2.78;;;18.60;99.90;;;;;;4847248;29;20036;-91
2022/08/24 00:04:05;;;;;;;;;;;18.70;99.90;;;;;;4859924;29;20086;-90
2022/08/24 00:06:45;;;;;;;3.58;2.38;;;18.70;99.90;;;;;;4846777;29;19940;-90
2022/08/24 00:09:11;;;;;;;7.22;3.00;;;18.70;99.90;;;;;;4846706;29;20038;-90
2022/08/24 00:11:46;;;;;;;4.63;2.30;;;18.70;99.90;;;;;;4862201;29;20022;-89
2022/08/24 00:14:13;;;;;;;8.70;2.60;;;18.70;99.90;;;;;;4830856;29;20042;-90
2022/08/24 00:16:40;;;;;;;5.10;2.53;;;18.80;99.90;;;;;;4862669;29;20113;-90
2022/08/24 00:19:06;;;;;;;8.13;2.60;;;18.80;99.90;;;;;;4844541;29;20076;-90
2022/08/24 00:21:34;;;;;;;4.90;2.40;;;18.80;99.90;;;;;;4861714;29;20049;-91
2022/08/24 00:24:02;;;;;;;8.02;2.58;;;18.80;99.90;;;;;;4830237;29;20136;-91
2022/08/24 00:26:29;;;;;;;7.88;2.60;;;18.90;99.90;;;;;;4831196;29;20501;-92
2022/08/24 00:29:02;;;;;;;3.90;2.60;;;18.90;99.90;;;;;;4862853;29;20030;-91
2022/08/24 00:31:31;;;;;;;7.43;2.63;;;18.80;99.90;;;;;;4830855;29;20033;-90
2022/08/24 00:34:04;;;;;;;6.03;2.88;;;18.90;99.90;;;;;;4846614;29;20048;-90
2022/08/24 00:36:42;;;;;;;7.57;3.17;;;18.80;99.90;;;;;;4842315;29;20190;-90
2022/08/24 00:39:12;;;;;;;10.63;3.03;;;18.80;99.90;;;;;;4833248;29;20037;-91
2022/08/24 00:41:45;;;;;;;5.03;2.90;;;18.80;99.90;;;;;;4831688;29;20034;-91
2022/08/24 00:44:18;;;;;;;7.28;2.65;;;18.70;99.90;;;;;;4846078;29;20077;-91
2022/08/24 00:47:10;;;;;;;5.50;3.45;;;18.70;99.90;;;;;;4845811;29;20049;-91
2022/08/24 00:49:57;;;;;;;6.10;3.28;;;18.60;99.90;;;;;;4847891;29;20093;-90
2022/08/24 00:52:38;;;;;;;5.20;2.85;;;18.60;99.90;;;;;;4862136;29;20029;-90
2022/08/24 00:55:30;;;;;;;9.35;2.65;;;18.60;99.90;;;;;;4862282;29;20038;-90
2022/08/24 00:58:12;;;;;;;5.03;3.28;;;18.60;99.90;;;;;;4861133;29;20033;-91
2022/08/24 01:00:56;;;;;;;7.43;2.70;;;18.60;99.90;;;;;;4845463;29;20033;-91
2022/08/24 01:03:46;;;;;;;5.32;3.40;;;18.60;99.90;;;;;;4861307;29;20125;-89
2022/08/24 01:06:15;;;;;;;6.05;2.47;;;18.60;99.90;;;;;;4841576;29;20533;-91
2022/08/24 01:08:43;;;;;;;5.45;2.70;;;18.60;99.90;;;;;;4845479;29;20030;-91
2022/08/24 01:11:17;;;;;;;3.75;2.83;;;18.50;99.90;;;;;;4844955;29;20033;-91
2022/08/24 01:13:48;;;;;;;5.78;2.70;;;18.50;99.90;;;;;;4845108;29;20052;-92
2022/08/24 01:18:48;;;;;;;3.97;2.67;;;18.40;99.90;;;;;;4830497;29;20080;-90
2022/08/24 01:19:14;;;;;;;7.00;2.88;;;18.30;99.90;;;;;;4861949;29;20037;-91
2022/08/24 01:22:16;;;;;;;5.68;2.92;;;18.30;99.90;;;;;;4831101;29;20049;-90
2022/08/24 01:24:52;;;;;;;6.38;2.75;;;18.30;99.90;;;;;;4830415;29;20038;-90
2022/08/24 01:27:19;;;;;;;5.68;2.75;;;18.30;99.90;;;;;;4845166;29;20037;-91
2022/08/24 01:29:46;;;;;;;7.80;2.75;;;18.20;99.90;;;;;;4827862;29;20148;-91
2022/08/24 01:32:18;;;;;;;4.50;2.60;;;18.20;99.90;;;;;;4845397;29;20060;-90
2022/08/24 01:34:45;;;;;;;5.97;2.80;;;18.20;99.90;;;;;;4845950;29;20558;-91
2022/08/24 01:37:11;;;;;;;6.97;2.78;;;18.20;99.90;;;;;;4850060;29;20405;-90
2022/08/24 01:39:43;;;;;;;5.70;2.40;;;18.20;99.90;;;;;;4849221;29;20042;-90
2022/08/24 01:42:13;;;;;;;5.75;2.65;;;18.30;99.90;;;;;;4832853;29;20029;-89
2022/08/24 01:44:43;;;;;;;5.38;2.72;;;18.30;99.90;;;;;;4846599;29;20037;-90
2022/08/24 01:47:31;;;;;;;3.42;2.70;;;18.30;99.90;;;;;;4845502;29;20124;-90
2022/08/24 01:50:14;;;;;;;6.65;2.97;;;18.30;99.90;;;;;;4844134;29;20060;-90
2022/08/24 01:52:45;;;;;;;6.88;2.88;;;18.30;99.90;;;;;;4844564;29;20109;-90
2022/08/24 01:55:18;;;;;;;5.13;3.00;;;18.30;99.90;;;;;;4844986;29;20045;-91
2022/08/24 01:57:44;;;;;;;5.03;2.92;;;18.30;99.90;;;;;;4830320;29;20062;-90
2022/08/24 02:00:15;;;;;;;6.70;2.50;;;18.20;99.90;;;;;;4844926;29;20037;-90
2022/08/24 02:02:51;;;;;;;6.40;2.60;;;18.30;99.90;;;;;;4861357;29;20078;-91
2022/08/24 02:05:22;;;;;;;6.88;2.42;;;18.30;99.90;;;;;;4861032;29;20121;-90
2022/08/24 02:07:53;;;;;;;6.53;2.85;;;18.30;99.90;;;;;;4858812;29;20512;-91
2022/08/24 02:10:27;;;;;;;4.60;2.97;;;18.30;99.90;;;;;;4846353;29;20101;-91
2022/08/24 02:13:03;;;;;;;5.50;2.88;;;18.30;99.90;;;;;;4845109;29;20546;-91
2022/08/24 02:15:40;;;;;;;6.13;3.25;;;18.30;99.90;;;;;;4829549;29;20213;-90
2022/08/24 02:18:10;;;;;;;10.52;3.58;;;18.20;99.90;;;;;;4844838;29;20057;-92
2022/08/24 02:20:44;;;;;;;9.90;3.35;;;18.20;99.90;;;;;;4845276;29;20030;-91
2022/08/24 02:23:13;;;;;;;5.63;3.75;;;18.10;99.90;;;;;;4845164;29;20564;-91
2022/08/24 02:25:40;;;;;;;10.82;4.00;;;18.10;99.90;;;;;;4844777;29;20038;-91
2022/08/24 02:28:10;;;;;;;7.10;3.53;;;18.10;99.90;;;;;;4846611;29;20132;-92
2022/08/24 02:30:39;;;;;;;5.97;3.15;;;18.10;99.90;;;;;;4848671;29;20033;-92
2022/08/24 02:33:08;;;;;;;5.68;2.60;;;18.10;99.90;;;;;;4848545;29;20049;-92
2022/08/24 02:35:34;;;;;;;5.90;3.27;;;18.00;99.90;;;;;;4850176;29;20042;-90
2022/08/24 02:38:09;;;;;;;7.70;3.08;;;18.00;99.90;;;;;;4849061;29;20029;-91
2022/08/24 02:40:40;;;;;;;7.05;2.90;;;18.10;99.90;;;;;;4847973;29;20035;-90
2022/08/24 02:43:17;;;;;;;5.57;2.42;;;18.00;99.90;;;;;;4863208;29;20088;-91
2022/08/24 02:45:45;;;;;;;4.70;2.45;;;18.00;99.90;;;;;;4848112;29;20550;-91
2022/08/24 02:48:16;;;;;;;5.35;2.58;;;18.00;99.90;;;;;;4847719;29;20029;-91
2022/08/24 02:50:46;;;;;;;4.15;2.55;;;18.00;99.90;;;;;;4849493;29;20033;-91
2022/08/24 02:53:15;;;;;;;8.02;2.72;;;18.00;99.90;;;;;;4837982;29;20037;-90
2022/08/24 02:55:46;;;;;;;4.80;2.30;;;18.00;99.90;;;;;;4846623;29;20041;-90
2022/08/24 02:58:17;;;;;;;;;;;18.00;99.90;;;;;;4863140;29;20037;-89
2022/08/24 03:01:02;;;;;;;6.68;2.50;;;18.00;99.90;;;;;;4865718;29;19907;-90
2022/08/24 03:03:28;;;;;;;11.10;3.20;;;18.00;99.90;;;;;;4861031;29;20042;-91
2022/08/24 03:05:58;;;;;;;4.93;2.40;;;18.00;99.90;;;;;;4850468;29;20037;-90
2022/08/24 03:08:55;;;;;;;7.28;2.60;;;18.00;99.90;;;;;;4848532;29;20033;-92
2022/08/24 03:11:24;;;;;;;3.65;3.22;;;17.90;99.90;;;;;;4810527;29;20126;-91
2022/08/24 03:14:00;;;;;;;9.05;3.10;;;17.90;99.90;;;;;;4843717;29;20124;-91
2022/08/24 03:17:02;;;;;;;4.28;3.03;;;17.90;99.90;;;;;;4831815;29;20109;-91
2022/08/24 03:19:30;;;;;;;5.75;2.80;;;17.80;99.90;;;;;;4847086;29;20041;-90
2022/08/24 03:22:00;;;;;;;8.63;2.70;;;17.80;99.90;;;;;;4847622;29;20033;-92
2022/08/24 03:24:27;;;;;;;5.07;3.22;;;17.80;99.90;;;;;;4832179;29;20489;-90
2022/08/24 03:27:05;;;;;;;4.72;2.90;;;17.80;99.90;;;;;;4847326;29;20038;-92
2022/08/24 03:29:37;;;;;;;5.88;2.75;;;17.80;99.90;;;;;;4847162;29;20465;-91
2022/08/24 03:32:16;;;;;;;5.65;2.80;;;17.70;99.90;;;;;;4846522;29;20049;-92
2022/08/24 03:35:03;;;;;;;8.82;3.30;;;17.70;99.90;;;;;;4846765;29;20110;-91
2022/08/24 03:37:43;;;;;;;6.13;3.35;;;17.70;99.90;;;;;;4864273;29;20033;-91
2022/08/24 03:40:37;;;;;;;8.02;4.07;;;17.60;99.90;;;;;;4868165;29;20041;-91
2022/08/24 03:46:56;;;;;;;4.85;2.45;;;17.60;99.90;;;;;;4864041;29;20076;-91
2022/08/24 03:50:12;;;;;;;5.75;3.20;;;17.60;99.90;;;;;;4861069;29;20048;-91
2022/08/24 03:52:51;;;;;;;8.88;4.60;;;17.60;99.90;;;;;;4831182;29;20050;-91
2022/08/24 03:55:42;;;;;;;9.82;4.32;;;17.60;99.90;;;;;;4832457;29;20060;-92
2022/08/24 03:58:35;;;;;;;15.68;6.28;;;17.60;99.90;;;;;;4845797;29;20045;-92
2022/08/24 04:01:04;;;;;;;7.25;4.97;;;17.50;99.90;;;;;;4844367;29;20082;-90
2022/08/24 04:03:39;;;;;;;12.40;6.00;;;17.60;99.90;;;;;;4831327;29;20044;-92
2022/08/24 04:06:14;;;;;;;10.23;6.68;;;17.60;99.90;;;;;;4846318;29;20183;-92
2022/08/24 04:08:45;;;;;;;12.27;5.68;;;17.60;99.90;;;;;;4861276;29;20050;-93
2022/08/24 04:11:15;;;;;;;11.02;6.13;;;17.60;99.90;;;;;;4846106;29;20065;-93
2022/08/24 04:13:42;;;;;;;14.00;6.72;;;17.70;99.90;;;;;;4846148;29;20037;-92
2022/08/24 04:16:16;;;;;;;14.43;6.95;;;17.70;99.90;;;;;;4845645;29;20042;-94
2022/08/24 04:18:45;;;;;;;15.35;6.72;;;17.70;99.90;;;;;;4844508;29;20116;-93
2022/08/24 04:21:25;;;;;;;11.02;6.88;;;17.80;99.90;;;;;;4831344;29;20038;-94
2022/08/24 04:23:52;;;;;;;12.25;7.25;;;17.80;99.90;;;;;;4846996;29;20029;-94
2022/08/24 04:26:32;;;;;;;12.50;7.35;;;17.80;99.90;;;;;;4846783;29;20034;-94
2022/08/24 04:29:01;;;;;;;10.88;7.57;;;17.90;99.90;;;;;;4846678;29;20065;-94
2022/08/24 04:31:38;;;;;;;12.32;7.03;;;17.90;99.90;;;;;;4831084;29;20117;-93
2022/08/24 04:34:06;;;;;;;9.85;6.32;;;17.90;99.90;;;;;;4846008;29;20505;-92
2022/08/24 04:36:41;;;;;;;11.15;7.05;;;18.00;99.90;;;;;;4831396;29;20057;-92
2022/08/24 04:39:16;;;;;;;10.85;6.85;;;18.00;99.90;;;;;;4827753;29;20512;-92
2022/08/24 04:42:00;;;;;;;10.63;6.85;;;18.00;99.90;;;;;;4846460;29;20120;-93
2022/08/24 04:44:52;;;;;;;12.55;6.90;;;18.00;99.90;;;;;;4846212;29;20033;-93
2022/08/24 04:50:34;;;;;;;11.48;7.22;;;18.10;99.90;;;;;;4862549;29;20057;-92
2022/08/24 04:53:10;;;;;;;12.82;6.70;;;18.10;99.90;;;;;;4859816;29;20025;-92
2022/08/24 04:55:54;;;;;;;11.50;6.72;;;18.10;99.90;;;;;;4846185;29;20148;-92
2022/08/24 04:58:46;;;;;;;10.48;6.90;;;18.20;99.90;;;;;;4831281;29;20140;-91
2022/08/24 05:01:26;;;;;;;10.32;6.85;;;18.20;99.90;;;;;;4838226;29;20045;-92
2022/08/24 05:04:13;;;;;;;8.48;5.20;;;18.20;99.90;;;;;;4844083;29;20041;-93
2022/08/24 05:06:43;;;;;;;9.20;5.95;;;18.20;99.90;;;;;;4849350;29;20041;-93
2022/08/24 05:09:21;;;;;;;11.95;6.20;;;18.30;99.90;;;;;;4846282;29;20025;-92
2022/08/24 05:12:00;;;;;;;8.70;6.10;;;18.20;99.90;;;;;;4846032;29;20057;-93
2022/08/24 05:14:48;;;;;;;10.48;5.68;;;18.30;99.90;;;;;;4848165;29;20045;-93
2022/08/24 05:17:20;;;;;;;7.82;5.05;;;18.30;99.90;;;;;;4862528;29;20030;-92
2022/08/24 05:19:48;;;;;;;11.13;4.75;;;18.30;99.90;;;;;;4831341;29;20056;-92
2022/08/24 05:22:30;;;;;;;11.98;5.00;;;18.30;99.90;;;;;;4846161;29;20036;-94
2022/08/24 05:25:10;;;;;;;7.88;4.82;;;18.30;99.90;;;;;;4831546;29;20037;-92
2022/08/24 05:27:54;;;;;;;;;;;;;;;;;;;;;
2022/08/24 05:30:27;;;;;;;5.85;3.78;;;18.40;99.90;;;;;;4846036;29;20046;-93
2022/08/24 05:33:08;;;;;;;5.05;3.70;;;18.40;99.90;;;;;;4845745;29;20085;-92
2022/08/24 05:35:40;;;;;;;5.18;3.20;;;18.40;99.90;;;;;;4827211;29;20515;-93
2022/08/24 05:38:13;;;;;;;;;;;18.40;99.90;;;;;;4828275;29;20498;-91
2022/08/24 05:40:40;;;;;;;7.80;3.35;;;18.50;99.90;;;;;;4833535;29;19912;-93
2022/08/24 05:43:11;;;;;;;5.15;3.15;;;18.50;99.90;;;;;;4831676;29;20402;-92
2022/08/24 05:49:31;;;;;;;6.63;3.35;;;18.50;99.90;;;;;;4787578;30;20039;-91
2022/08/24 05:52:16;;;;;;;7.75;4.10;;;18.50;99.90;;;;;;4787326;30;20050;-91
2022/08/24 05:55:41;;;;;;;9.98;3.55;;;18.50;99.90;;;;;;4770797;30;20070;-93
2022/08/24 05:58:54;;;;;;;5.68;2.92;;;18.50;99.90;;;;;;4787687;30;20078;-92
2022/08/24 06:04:30;;;;;;;3.90;2.90;;;18.60;99.90;;;;;;4787596;30;20065;-93
2022/08/24 06:10:55;;;;;;;6.53;2.60;;;18.60;99.90;;;;;;4798458;30;20434;-92
2022/08/24 06:13:35;;;;;;;4.82;2.83;;;18.60;99.90;;;;;;4805221;29;20034;-93
2022/08/24 06:16:39;;;;;;;3.97;3.03;;;18.50;99.90;;;;;;4815429;29;20049;-91
2022/08/24 06:19:21;;;;;;;3.75;2.75;;;18.60;99.90;;;;;;4830408;29;20064;-94
2022/08/24 06:22:02;;;;;;;4.30;2.75;;;18.60;99.90;;;;;;4830530;29;20042;-93
2022/08/24 06:27:59;;;;;;;3.90;2.10;;;18.60;99.90;;;;;;4847218;29;20049;-93
2022/08/24 06:30:37;;;;;;;3.47;2.67;;;18.60;99.90;;;;;;4828340;29;20516;-93
2022/08/24 06:33:58;;;;;;;4.55;2.47;;;18.60;99.90;;;;;;4846118;29;20105;-92
2022/08/24 06:37:01;;;;;;;9.23;2.75;;;18.60;99.90;;;;;;4807804;29;20125;-93
2022/08/24 06:39:37;;;;;;;2.75;2.30;;;18.60;99.90;;;;;;4815356;29;20038;-92
2022/08/24 06:49:45;;;;;;;4.10;2.45;;;18.70;99.90;;;;;;4847035;29;20072;-93
2022/08/24 06:53:01;;;;;;;2.20;2.00;;;18.70;99.90;;;;;;4845182;29;20034;-93
2022/08/24 06:56:15;;;;;;;2.40;2.17;;;18.70;99.90;;;;;;4832311;29;20034;-94
2022/08/24 07:10:04;;;;;;;4.20;2.50;;;18.60;99.90;;;;;;4741098;30;20425;-93
2022/08/24 07:12:34;;;;;;;4.45;2.20;;;18.60;99.90;;;;;;4737411;30;20040;-92
2022/08/24 07:15:25;;;;;;;5.70;1.88;;;18.60;99.90;;;;;;4735982;30;20045;-92
2022/08/24 07:18:19;;;;;;;3.97;2.05;;;18.60;99.90;;;;;;4739151;30;20141;-91
2022/08/24 07:20:49;;;;;;;5.07;2.28;;;18.60;99.90;;;;;;4742610;30;20153;-91
2022/08/24 07:23:16;;;;;;;2.47;2.28;;;18.60;99.90;;;;;;4738107;30;20104;-91
2022/08/24 07:25:46;;;;;;;2.55;2.28;;;18.60;99.90;;;;;;4735738;30;20032;-94
2022/08/24 07:28:12;;;;;;;5.33;2.80;;;18.60;99.90;;;;;;4735588;30;20036;-95
2022/08/24 07:30:43;;;;;;;3.38;2.03;;;18.60;99.90;;;;;;4735725;30;20279;-94
2022/08/24 07:33:10;;;;;;;3.70;2.28;;;18.60;99.90;;;;;;4726841;30;20144;-92
2022/08/24 07:35:38;;;;;;;2.70;2.10;;;18.70;99.90;;;;;;4718013;30;20057;-91
2022/08/24 07:38:05;;;;;;;3.10;2.10;;;18.60;99.90;;;;;;4717168;30;20132;-93
2022/08/24 07:40:31;;;;;;;2.30;2.00;;;18.70;99.90;;;;;;4739602;30;20046;-93
2022/08/24 07:42:57;;;;;;;3.88;2.40;;;18.70;99.90;;;;;;4788897;29;20041;-93
2022/08/24 07:45:25;;;;;;;3.30;2.50;;;18.70;99.90;;;;;;4803039;29;20578;-91
2022/08/24 07:47:51;;;;;;;4.75;2.45;;;18.70;99.90;;;;;;4836751;29;20046;-93
2022/08/24 07:50:18;;;;;;;4.82;2.60;;;18.80;99.90;;;;;;4832129;29;20029;-94
2022/08/24 07:52:45;;;;;;;6.47;2.28;;;18.80;99.90;;;;;;4843288;29;20030;-92
2022/08/24 07:55:12;;;;;;;6.57;2.47;;;18.80;99.90;;;;;;4829129;29;20053;-94
2022/08/24 07:57:48;;;;;;;7.28;2.33;;;18.80;99.90;;;;;;4832777;29;20030;-94
2022/08/24 08:00:22;;;;;;;4.13;2.20;;;18.80;99.90;;;;;;4831679;29;20042;-92
2022/08/24 08:03:05;;;;;;;4.72;1.95;;;18.90;99.90;;;;;;4829446;29;20030;-92
2022/08/24 08:05:41;;;;;;;5.05;2.42;;;18.90;99.90;;;;;;4847188;29;20034;-92
2022/08/24 08:08:19;;;;;;;3.95;1.80;;;18.90;99.90;;;;;;4845410;29;20079;-93
2022/08/24 08:10:47;;;;;;;2.22;1.63;;;19.00;99.90;;;;;;4830183;29;20030;-93
2022/08/24 08:13:14;;;;;;;2.30;1.08;;;19.00;99.90;;;;;;4830577;29;20026;-93
2022/08/24 08:15:45;;;;;;;1.58;1.30;;;19.00;99.90;;;;;;4830041;29;20041;-91
2022/08/24 08:18:15;;;;;;;3.80;1.27;;;19.00;99.90;;;;;;4846586;29;20034;-92
2022/08/24 08:20:41;;;;;;;1.35;1.25;;;19.00;99.90;;;;;;4831449;29;20030;-95
2022/08/24 08:25:54;;;;;;;2.90;1.30;;;19.10;99.90;;;;;;4847452;29;20446;-91
2022/08/24 08:28:25;;;;;;;1.77;1.20;;;19.10;99.90;;;;;;4832927;29;20034;-94
2022/08/24 08:30:53;;;;;;;3.80;1.48;;;19.10;99.90;;;;;;4834929;29;20376;-94
2022/08/24 08:33:19;;;;;;;1.75;1.30;;;19.20;99.90;;;;;;4829428;29;20042;-94
2022/08/24 08:35:48;;;;;;;2.63;2.00;;;19.20;99.90;;;;;;4839244;29;20140;-92
2022/08/24 08:38:17;;;;;;;3.00;2.17;;;19.20;99.90;;;;;;4851599;29;20026;-93
2022/08/24 08:41:08;;;;;;;2.33;1.85;;;19.20;99.90;;;;;;4847515;29;20069;-92
2022/08/24 08:43:40;;;;;;;2.40;1.15;;;19.30;99.90;;;;;;4852852;29;20029;-96
2022/08/24 08:46:53;;;;;;;5.97;1.02;;;19.40;99.90;;;;;;4854394;29;20033;-94
2022/08/24 08:49:40;;;;;;;0.82;0.82;;;19.40;99.90;;;;;;4853810;29;20097;-95
2022/08/24 08:52:29;;;;;;;0.55;0.55;;;19.50;99.90;;;;;;4855259;29;20033;-95
2022/08/24 08:55:07;;;;;;;1.35;0.38;;;19.40;99.90;;;;;;4856066;29;20049;-92
2022/08/24 08:58:04;;;;;;;2.03;0.28;;;19.40;99.90;;;;;;4848675;29;20026;-91
2022/08/24 09:01:00;;;;;;;0.30;0.30;;;19.30;99.90;;;;;;4853451;29;20029;-93
2022/08/24 09:04:03;;;;;;;1.23;0.60;;;19.20;99.90;;;;;;4866790;29;20044;-95
2022/08/24 09:06:50;;;;;;;0.63;0.50;;;19.20;99.90;;;;;;4848572;29;20041;-94
2022/08/24 09:09:29;;;;;;;0.73;0.70;;;19.10;99.90;;;;;;4872102;29;20057;-93
2022/08/24 09:12:05;;;;;;;0.40;0.40;;;19.20;99.90;;;;;;4859153;29;20062;-93
2022/08/24 09:15:05;;;;;;;0.57;0.30;;;19.40;99.90;;;;;;4849385;29;20057;-92
2022/08/24 09:18:17;;;;;;;1.10;0.20;;;19.50;99.90;;;;;;4848327;29;20046;-92
2022/08/24 09:21:04;;;;;;;1.17;0.20;;;19.50;99.90;;;;;;4849523;29;20021;-91
2022/08/24 09:23:54;;;;;;;1.85;0.30;;;19.50;99.90;;;;;;4846366;29;20029;-92
2022/08/24 09:26:38;;;;;;;0.63;0.20;;;19.60;99.90;;;;;;4845660;29;20030;-92
2022/08/24 09:29:29;;;;;;;0.10;0.10;;;19.80;99.90;;;;;;4846399;29;20482;-91
2022/08/24 09:32:06;;;;;;;0.28;0.28;;;20.00;99.90;;;;;;4845391;29;20041;-91
2022/08/24 09:34:59;;;;;;;0.80;0.30;;;20.00;99.90;;;;;;4845623;29;20129;-91
2022/08/24 09:37:45;;;;;;;0.30;0.20;;;20.10;99.90;;;;;;4844978;29;20390;-92
2022/08/24 09:40:35;;;;;;;0.40;0.40;;;20.10;99.90;;;;;;4845301;29;20057;-91
2022/08/24 09:43:40;;;;;;;0.43;0.25;;;20.30;99.90;;;;;;4845922;29;20112;-91
2022/08/24 09:46:15;;;;;;;1.33;0.30;;;20.30;99.90;;;;;;4851990;29;20113;-92
2022/08/24 09:49:20;;;;;;;1.00;0.40;;;20.40;99.90;;;;;;4845398;29;20033;-91
2022/08/24 09:52:28;;;;;;;0.55;0.20;;;20.50;99.90;;;;;;4845656;29;20034;-92
2022/08/24 09:55:26;;;;;;;0.20;0.20;;;20.60;99.90;;;;;;4845294;29;20033;-92
2022/08/24 09:58:06;;;;;;;0.10;0.10;;;20.60;99.90;;;;;;4845573;29;20101;-92
2022/08/24 10:00:47;;;;;;;0.57;0.17;;;20.50;99.90;;;;;;4845254;29;20025;-91
2022/08/24 10:03:50;;;;;;;1.25;0.35;;;20.60;99.90;;;;;;4844575;29;20040;-91
2022/08/24 10:06:41;;;;;;;0.73;0.40;;;20.60;99.90;;;;;;4845227;29;20069;-92
2022/08/24 10:09:39;;;;;;;1.10;0.47;;;20.60;99.90;;;;;;4845061;29;20067;-93
2022/08/24 10:12:08;;;;;;;0.40;0.20;;;20.70;99.90;;;;;;4832711;29;20030;-91
2022/08/24 10:15:03;;;;;;;0.30;0.28;;;20.70;99.90;;;;;;4845493;29;20124;-92
2022/08/24 10:18:07;;;;;;;0.55;0.20;;;20.80;99.90;;;;;;4863870;29;20041;-92
2022/08/24 10:21:18;;;;;;;0.15;0.10;;;20.80;99.90;;;;;;4844904;29;20038;-91
2022/08/24 10:24:14;;;;;;;1.27;0.10;;;20.80;99.90;;;;;;4845598;29;20042;-92
2022/08/24 10:27:12;;;;;;;1.65;0.20;;;20.80;99.90;;;;;;4862522;29;20434;-93
2022/08/24 10:29:56;;;;;;;3.25;0.15;;;20.80;99.90;;;;;;4846620;29;20053;-90
2022/08/24 10:32:51;;;;;;;0.10;0.10;;;20.80;99.90;;;;;;4845703;29;20228;-91
2022/08/24 10:36:05;;;;;;;0.55;0.20;;;20.90;99.90;;;;;;4844139;29;20136;-92
2022/08/24 10:45:41;;;;;;;0.22;0.10;;;21.90;99.90;;;;;;4862076;29;20066;-92
2022/08/24 10:48:29;;;;;;;0.65;0.10;;;22.20;99.90;;;;;;4845331;29;20030;-91
2022/08/24 10:51:17;;;;;;;0.20;0.20;;;22.30;99.90;;;;;;4864185;29;20078;-93
2022/08/24 10:53:52;;;;;;;0.45;0.10;;;22.20;99.90;;;;;;4848356;29;20030;-90
2022/08/24 10:56:28;;;;;;;0.25;0.10;;;22.20;99.90;;;;;;4848326;29;20490;-92
2022/08/24 10:59:27;;;;;;;1.10;0.17;;;22.10;99.90;;;;;;4848698;29;20081;-90
2022/08/24 11:02:51;;;;;;;2.38;0.40;;;22.10;99.90;;;;;;4864575;29;20556;-94
2022/08/24 11:05:44;;;;;;;;;;;22.10;99.90;;;;;;4849092;29;20030;-93
2022/08/24 11:08:26;;;;;;;0.70;0.30;;;22.20;99.90;;;;;;4857467;29;19908;-90
2022/08/24 11:11:24;;;;;;;0.47;0.15;;;22.40;99.90;;;;;;4835807;29;20090;-90
2022/08/24 11:13:57;;;;;;;0.10;0.10;;;22.40;99.90;;;;;;4858464;29;20041;-91
2022/08/24 11:17:22;;;;;;;1.48;0.17;;;22.40;99.90;;;;;;4866913;29;20034;-91
2022/08/24 11:19:52;;;;;;;0.00;0.00;;;22.40;99.90;;;;;;4879859;29;20037;-91
2022/08/24 11:22:59;;;;;;;0.43;0.20;;;22.40;99.90;;;;;;4852719;29;20124;-92
2022/08/24 11:29:16;;;;;;;0.40;0.20;;;22.40;99.90;;;;;;4836369;29;20025;-93
2022/08/24 11:32:03;;;;;;;2.42;0.20;;;22.40;99.90;;;;;;4863738;29;20034;-93
2022/08/24 11:34:46;;;;;;;1.08;0.50;;;22.40;99.90;;;;;;4859913;29;20524;-89
2022/08/24 11:37:32;;;;;;;0.55;0.55;;;22.60;99.90;;;;;;4848161;29;20093;-92
2022/08/24 11:40:16;;;;;;;1.90;0.70;;;22.50;99.90;;;;;;4864544;29;20034;-93
2022/08/24 11:50:05;;;;;;;1.45;0.65;;;23.00;99.90;;;;;;4866406;29;20117;-92
2022/08/24 11:53:21;;;;;;;1.05;0.80;;;23.30;99.90;;;;;;4848110;29;20036;-92
2022/08/24 12:00:06;;;;;;;1.67;0.80;;;23.40;99.90;;;;;;4864636;29;20044;-91
2022/08/24 12:03:29;;;;;;;0.75;0.60;;;23.40;99.90;;;;;;4858594;29;20071;-92
2022/08/24 12:06:08;;;;;;;1.27;0.60;;;23.50;99.50;;;;;;4822393;29;20037;-91
2022/08/24 12:08:54;;;;;;;1.65;1.05;;;23.90;99.00;;;;;;4865078;29;20034;-92
2022/08/24 12:11:53;;;;;;;0.77;0.40;;;24.30;98.10;;;;;;4849451;29;20034;-91
2022/08/24 12:14:34;;;;;;;1.65;0.50;;;24.70;96.70;;;;;;4853905;29;20041;-93
2022/08/24 12:17:28;;;;;;;0.40;0.40;;;24.90;95.60;;;;;;4853659;29;20040;-92
2022/08/24 12:20:21;;;;;;;2.05;0.40;;;24.90;94.40;;;;;;4846987;29;20512;-89
2022/08/24 12:22:49;;;;;;;0.40;0.40;;;25.00;93.80;;;;;;4846805;29;20026;-91
2022/08/24 12:28:10;;;;;;;2.40;0.63;;;25.00;92.50;;;;;;4863354;29;20070;-94
2022/08/24 12:30:45;;;;;;;0.10;0.10;;;25.00;92.10;;;;;;4845467;29;20461;-92
2022/08/24 12:33:20;;;;;;;0.85;0.30;;;24.90;91.90;;;;;;4861929;29;20037;-92
2022/08/24 12:35:58;;;;;;;2.35;0.20;;;24.90;91.80;;;;;;4846307;29;20144;-91
2022/08/24 12:38:37;;;;;;;0.55;0.40;;;24.90;91.40;;;;;;4841289;29;20485;-91
2022/08/24 12:41:28;;;;;;;0.45;0.45;;;24.90;91.00;;;;;;4845536;29;20041;-93
2022/08/24 12:44:13;;;;;;;0.70;0.35;;;24.90;90.30;;;;;;4831246;29;20041;-89
2022/08/24 12:46:43;;;;;;;0.70;0.30;;;25.10;90.30;;;;;;4846700;29;20029;-92
2022/08/24 12:49:29;;;;;;;1.10;0.38;;;25.40;88.70;;;;;;4845657;29;20038;-91
2022/08/24 12:52:43;;;;;;;0.38;0.30;;;25.80;86.80;;;;;;4846403;29;20556;-93
2022/08/24 12:56:06;;;;;;;0.98;0.10;;;26.10;84.90;;;;;;4864170;29;20038;-93
2022/08/24 12:59:23;;;;;;;0.57;0.25;;;26.10;82.70;;;;;;4868758;29;20520;-92
2022/08/24 13:02:51;;;;;;;1.13;0.43;;;25.90;82.00;;;;;;4847391;29;20521;-93
2022/08/24 13:06:15;;;;;;;0.50;0.50;;;25.70;82.80;;;;;;4831609;29;20048;-93
2022/08/24 13:09:29;;;;;;;3.25;0.40;;;25.50;83.20;;;;;;4862286;29;20041;-93
2022/08/24 13:16:04;;;;;;;0.32;0.30;;;25.60;84.30;;;;;;4788526;30;20150;-94
2022/08/24 13:19:13;;;;;;;0.30;0.22;;;26.00;83.80;;;;;;4752845;30;20489;-94
2022/08/24 13:29:56;;;;;;;1.40;0.40;;;26.30;81.00;;;;;;4746328;30;20116;-93
2022/08/24 13:33:11;;;;;;;1.17;0.30;;;26.20;80.90;;;;;;4737331;30;20493;-93
2022/08/24 13:36:07;;;;;;;1.50;0.40;;;25.90;81.30;;;;;;4751315;30;20056;-92
2022/08/24 13:39:33;;;;;;;2.53;0.57;;;25.60;81.30;;;;;;4740143;30;20059;-91
2022/08/24 13:43:17;;;;;;;;;;;;;;;;;;;;;
2022/08/24 13:46:27;;;;;;;0.90;0.28;;;25.30;82.20;;;;;;4778704;30;20601;-93
2022/08/24 13:49:25;;;;;;;1.30;0.30;;;25.10;81.10;;;;;;4759475;30;20056;-91
2022/08/24 13:52:41;;;;;;;1.70;0.45;;;24.90;81.30;;;;;;4788335;29;20039;-92
2022/08/24 13:55:31;;;;;;;2.40;0.40;;;24.80;82.50;;;;;;4805645;29;20153;-92
2022/08/24 13:58:40;;;;;;;0.38;0.38;;;25.10;83.30;;;;;;4796717;29;20143;-94
2022/08/24 14:01:46;;;;;;;1.45;0.50;;;25.50;82.70;;;;;;4818312;29;20074;-93
2022/08/24 14:05:01;;;;;;;2.03;0.30;;;26.00;81.50;;;;;;4808818;29;20039;-93
2022/08/24 14:08:10;;;;;;;0.73;0.40;;;26.40;80.00;;;;;;4801663;29;20121;-93
2022/08/24 14:11:03;;;;;;;0.20;0.20;;;26.70;77.50;;;;;;4802959;29;20511;-92
2022/08/24 14:20:26;;;;;;;1.25;0.17;;;27.00;74.50;;;;;;4842932;29;20070;-92
2022/08/24 14:23:20;;;;;;;1.98;0.47;;;27.50;73.40;;;;;;4842081;29;20029;-91
2022/08/24 14:26:36;;;;;;;2.83;0.38;;;27.70;71.50;;;;;;4845194;29;20109;-92
2022/08/24 14:29:59;;;;;;;2.92;0.30;;;27.60;70.10;;;;;;4790556;30;20555;-92
2022/08/24 14:32:40;;;;;;;0.47;0.22;;;27.80;70.30;;;;;;4740218;30;20040;-92
2022/08/24 14:35:18;;;;;;;;;;;28.00;69.50;;;;;;4740398;30;20147;-92
2022/08/24 14:38:11;;;;;;;1.65;0.38;;;28.20;69.10;;;;;;4744780;30;19922;-93
2022/08/24 14:41:00;;;;;;;1.52;0.30;;;28.40;68.30;;;;;;4722631;30;20045;-93
2022/08/24 14:44:05;;;;;;;0.90;0.43;;;28.60;67.80;;;;;;4722089;30;20029;-92
2022/08/24 14:46:55;;;;;;;2.60;0.32;;;28.50;65.60;;;;;;4721715;30;20049;-93
2022/08/24 14:49:29;;;;;;;0.90;0.50;;;28.60;66.70;;;;;;4722138;30;20041;-89
2022/08/24 14:52:30;;;;;;;0.55;0.20;;;28.70;65.70;;;;;;4722047;30;20106;-91
2022/08/24 14:55:55;;;;;;;0.22;0.20;;;28.60;65.40;;;;;;4721946;30;20618;-90
2022/08/24 14:58:56;;;;;;;0.30;0.30;;;28.50;65.40;;;;;;4683732;30;20084;-91
2022/08/24 15:01:54;;;;;;;1.80;0.30;;;28.20;65.40;;;;;;4670515;30;20050;-92
2022/08/24 15:05:08;;;;;;;1.20;0.28;;;28.00;65.90;;;;;;4684199;30;20471;-92
2022/08/24 15:07:53;;;;;;;1.10;0.30;;;27.80;66.50;;;;;;4700916;30;20144;-92
2022/08/24 15:10:25;;;;;;;1.70;0.40;;;27.70;67.10;;;;;;4701684;30;20033;-91
2022/08/24 15:13:29;;;;;;;0.98;0.30;;;27.80;67.90;;;;;;4701541;30;20088;-92
2022/08/24 15:16:26;;;;;;;2.85;0.30;;;28.00;67.70;;;;;;4702289;30;20049;-92
2022/08/24 15:19:16;;;;;;;;;;;27.90;67.60;;;;;;4691085;30;20068;-91
2022/08/24 15:22:14;;;;;;;;;;;27.80;67.60;;;;;;4711207;30;19918;-89
2022/08/24 15:25:01;;;;;;;2.50;0.40;;;27.60;68.80;;;;;;4749529;30;20000;-91
2022/08/24 15:27:47;;;;;;;1.30;0.40;;;27.50;68.30;;;;;;4744832;30;20135;-91
2022/08/24 15:30:32;;;;;;;1.48;0.35;;;27.40;68.90;;;;;;4757191;30;20071;-92
2022/08/24 15:33:19;;;;;;;2.13;0.20;;;27.60;70.40;;;;;;4811015;29;20038;-91
2022/08/24 15:36:02;;;;;;;0.57;0.35;;;27.90;69.60;;;;;;4811458;29;20034;-93
2022/08/24 15:38:41;;;;;;;1.95;0.20;;;28.00;68.60;;;;;;4826695;29;20502;-92
2022/08/24 15:41:41;;;;;;;2.53;0.45;;;28.00;68.70;;;;;;4842031;29;20438;-92